2022年9月25日

时间 代码 天气 温度 能见度 天花板 METAR/SPECI
12:00
V
19 °C 10 km+ - 020° 020° 4 kt METAR LFBD 251000Z AUTO 02004KT 330V140 9999 SCT028 SCT042 19/10 Q1016 NOSIG
11:30
V
18 °C 10 km+ - 360° 360° 4 kt METAR LFBD 250930Z AUTO 36004KT 310V050 CAVOK 18/10 Q1016 NOSIG
11:00
V
17 °C 10 km+ - 350° 350° 3 kt METAR LFBD 250900Z AUTO 35003KT 290V070 CAVOK 17/10 Q1016 NOSIG
10:30
V
16 °C 10 km+ - Var Var 2 kt METAR LFBD 250830Z AUTO VRB02KT CAVOK 16/11 Q1016 NOSIG
10:00
V
14 °C 10 km+ - Var 000° 0 kt METAR LFBD 250800Z AUTO 00000KT CAVOK 14/10 Q1016 NOSIG
09:30
V
12 °C 10 km+ - Var 000° 0 kt METAR LFBD 250730Z AUTO 00000KT CAVOK 12/10 Q1016 NOSIG
09:00
V
10 °C 10 km+ - 240° 240° 2 kt METAR LFBD 250700Z AUTO 24002KT CAVOK 10/09 Q1016 TEMPO 1000 MIFG
08:30
V
9 °C 10 km+ - Var 000° 0 kt METAR LFBD 250630Z AUTO 00000KT CAVOK 09/07 Q1016 TEMPO 1000 MIFG
08:00
V
9 °C 10 km+ - Var Var 3 kt METAR LFBD 250600Z AUTO VRB03KT CAVOK 09/09 Q1015 TEMPO 1000 MIFG
07:30
I
10 °C 1,6 km - 270° 270° 2 kt METAR LFBD 250530Z AUTO 27002KT 9999 1600 R05/1100D NSC 10/09 Q1015 TEMPO 1000 MIFG
07:00
L
10 °C 700 m - Var 000° 0 kt METAR LFBD 250500Z AUTO 00000KT 9999 0700 R23/P2300 R05/1200D R29/P2300 BCFG NSC 10/09 Q1015 TEMPO 1100 MIFG
06:30
L
10 °C 900 m - Var 000° 0 kt METAR LFBD 250430Z AUTO 00000KT 9999 0900 R23/P2300 R05/1100D R29/P2300 BCFG NSC 10/09 Q1015 TEMPO 1100 MIFG
06:00
L
10 °C 1 km - 270° 270° 2 kt METAR LFBD 250400Z AUTO 27002KT 9999 1000 R23/1200U R05/1000U R29/P2300 NSC 10/09 Q1015 TEMPO 1100 MIFG
05:30
L
10 °C 800 m - 260° 260° 3 kt METAR LFBD 250330Z AUTO 26003KT 9999 0800 R23/P2300 R05/0800N R29/P2300 BCFG NSC 10/09 Q1015 TEMPO 1100 MIFG
05:00
L
10 °C 500 m - Var 000° 0 kt METAR LFBD 250300Z AUTO 00000KT 9999 0500 R23/P2300 R05/0800U R29/P2300 BCFG NSC 10/09 Q1015 TEMPO 1100 MIFG
04:30
V
11 °C 10 km+ - Var Var 1 kt METAR LFBD 250230Z AUTO VRB01KT 9999 FEW030 11/09 Q1015 TEMPO 1100 MIFG
04:00
V
11 °C 10 km+ - Var Var 1 kt METAR LFBD 250200Z AUTO VRB01KT CAVOK 11/10 Q1015 TEMPO 1100 MIFG
03:30
V
11 °C 10 km+ - 270° 270° 3 kt METAR LFBD 250130Z AUTO 27003KT 9999 FEW035 11/10 Q1015 TEMPO 1100 MIFG
03:00
V
12 °C 10 km+ - Var Var 3 kt METAR LFBD 250100Z AUTO VRB03KT CAVOK 12/10 Q1015 NOSIG
02:30
V
12 °C 10 km+ 4.400 ft 290° 290° 4 kt METAR LFBD 250030Z AUTO 29004KT 9999 BKN044 BKN054 12/10 Q1015 NOSIG
02:00
V
12 °C 10 km+ - 260° 260° 4 kt METAR LFBD 250000Z AUTO 26004KT CAVOK 12/10 Q1015 NOSIG
01:30
L
12 °C 1,4 km - 270° 270° 3 kt METAR LFBD 242330Z AUTO 27003KT 9999 1400 R23/P2300 R05/1800D R29/P2300 //////TCU 12/10 Q1015 BECMG BKN030
01:00
V
12 °C 10 km+ - 270° 270° 3 kt METAR LFBD 242300Z AUTO 27003KT CAVOK 12/10 Q1015 TEMPO 4000 SHRA BKN020TCU
00:30
V
13 °C 10 km+ - 250° 250° 3 kt METAR LFBD 242230Z AUTO 25003KT 220V290 9999 FEW047 13/10 Q1015 TEMPO 4000 SHRA BKN020TCU
00:00
V
13 °C 10 km+ - 270° 270° 5 kt METAR LFBD 242200Z AUTO 27005KT 9999 FEW046 13/11 Q1015 TEMPO 4000 SHRA BKN020TCU

2022年9月24日

时间 代码 天气 温度 能见度 天花板 METAR/SPECI
23:30
V
14 °C 10 km+ - 260° 260° 5 kt METAR LFBD 242130Z AUTO 26005KT CAVOK 14/11 Q1016 TEMPO 4000 SHRA BKN020TCU
23:00
V
14 °C 10 km+ - 270° 270° 5 kt METAR LFBD 242100Z AUTO 27005KT CAVOK 14/11 Q1015 TEMPO 4000 SHRA BKN020TCU
22:30
V
15 °C 10 km+ - 270° 270° 5 kt METAR LFBD 242030Z AUTO 27005KT CAVOK 15/11 Q1015 TEMPO 4000 SHRA BKN020TCU
22:00
V
15 °C 10 km+ - 280° 280° 5 kt METAR LFBD 242000Z AUTO 28005KT 9999 FEW026 15/11 Q1015 TEMPO 4000 SHRA BKN020TCU
21:30
V
16 °C 10 km+ - 300° 300° 6 kt METAR LFBD 241930Z AUTO 30006KT CAVOK 16/11 Q1015 TEMPO 4000 SHRA BKN020TCU
21:00
V
16 °C 10 km+ - 300° 300° 7 kt METAR LFBD 241900Z AUTO 30007KT CAVOK 16/11 Q1015 TEMPO 4000 SHRA BKN020TCU
20:30
V
17 °C 10 km+ - 300° 300° 8 kt METAR LFBD 241830Z AUTO 30008KT CAVOK 17/11 Q1015 TEMPO 4000 SHRA BKN020TCU
20:00
V
17 °C 10 km+ - 300° 300° 8 kt METAR LFBD 241800Z AUTO 30008KT CAVOK 17/11 Q1014 TEMPO 4000 SHRA BKN020TCU
19:30
V
18 °C 10 km+ - 310° 310° 9 kt METAR LFBD 241730Z AUTO 31009KT CAVOK 18/11 Q1014 TEMPO 4000 SHRA BKN020TCU
19:00
V
19 °C 10 km+ - 310° 310° 13 kt METAR LFBD 241700Z AUTO 31013KT 9999 FEW036 19/11 Q1014 TEMPO 4000 SHRA BKN018CB
18:30
V
20 °C 10 km+ - 300° 300° 14 kt METAR LFBD 241630Z AUTO 30014KT 9999 FEW038 SCT240 20/10 Q1014 TEMPO 4000 SHRA BKN018CB
18:00
V
20 °C 10 km+ 18.000 ft 290° 290° 14 kt METAR LFBD 241600Z AUTO 29014KT 9999 FEW042 BKN180 20/10 Q1014 TEMPO 4000 SHRA BKN018CB
17:30
V
20 °C 10 km+ 19.000 ft 280° 280° 13 kt METAR LFBD 241530Z AUTO 28013KT 9999 FEW043 SCT090 BKN190 20/10 Q1014 TEMPO 4000 SHRA BKN018CB
17:00
V
21 °C 10 km+ 7.600 ft 290° 290° 14 kt METAR LFBD 241500Z AUTO 29014KT 270V330 9999 SCT043/// BKN076/// BKN088/// //////CB 21/11 Q1013 TEMPO 4000 SHRA
16:30
V
21 °C 10 km+ 4.500 ft 290° 290° 14 kt METAR LFBD 241430Z AUTO 29014KT 9999 BKN045/// BKN060/// OVC074/// ///CB 21/09 Q1013 TEMPO 4000 SHRA
16:00
V
22 °C 10 km+ 18.000 ft 280° 280° 15 kt METAR LFBD 241400Z AUTO 28015KT 250V320 9999 SCT045/// SCT056/// BKN180/// //////CB 22/10 Q1013 TEMPO 4000 SHRA
15:30
V
22 °C 10 km+ 8.600 ft 300° 300° 13 kt METAR LFBD 241330Z AUTO 30013KT 270V330 9999 SCT048/// SCT058/// BKN086/// ///TCU 22/10 Q1013 TEMPO 4000 SHRA BKN018CB
15:00
V
23 °C 10 km+ 4.600 ft 290° 290° 13 kt METAR LFBD 241300Z AUTO 29013KT 9999 BKN046 BKN064 BKN078 23/09 Q1013 TEMPO 4000 SHRA BKN018CB
14:30
V
21 °C 10 km+ - 320° 320° 10 kt METAR LFBD 241230Z AUTO 32010KT 9999 FEW047/// //////CB 21/10 Q1014 TEMPO 4000 SHRA
14:00
V
22 °C 10 km+ 4.900 ft 300° 300° 12 kt METAR LFBD 241200Z AUTO 30012KT 9999 SCT039/// BKN049/// BKN062/// //////CB 22/11 Q1014 TEMPO 4000 SHRA
13:30
V
21 °C 10 km+ 5.800 ft 340° 340° 8 kt METAR LFBD 241130Z AUTO 34008KT 300V020 9999 FEW034/// SCT042/// BKN058/// //////CB 21/12 Q1014 TEMPO 4000 SHRA
13:00
V
21 °C 10 km+ - 340° 340° 4 kt METAR LFBD 241100Z AUTO 34004KT 240V040 9999 FEW033 SCT066 21/12 Q1014 TEMPO 3000 SHRA FEW020CB BKN025TCU
12:30
V
20 °C 10 km+ 3.000 ft 310° 310° 10 kt METAR LFBD 241030Z AUTO 31010KT 230V340 9999 BKN030 BKN048 BKN064 20/12 Q1015 TEMPO 3000 SHRA FEW020CB BKN025TCU
12:00
V
20 °C 10 km+ 7.600 ft 300° 300° 7 kt METAR LFBD 241000Z AUTO 30007KT 250V360 9999 SCT024 SCT029 BKN076 20/13 Q1015 TEMPO 3000 SHRA FEW020CB BKN025TCU
11:30
V
19 °C 10 km+ - 310° 310° 10 kt METAR LFBD 240930Z AUTO 31010KT CAVOK 19/14 Q1015 TEMPO 3000 SHRA FEW020CB BKN025TCU
11:00
V
18 °C 10 km+ - 300° 300° 9 kt METAR LFBD 240900Z AUTO 30009KT 270V330 CAVOK 18/14 Q1015 TEMPO 3000 SHRA FEW020CB BKN025TCU
10:30
V
15 °C 10 km+ - 260° 260° 4 kt METAR LFBD 240830Z AUTO 26004KT 9999 FEW018 SCT070 15/14 Q1015 TEMPO 3000 SHRA FEW020CB BKN025TCU
10:00
V
14 °C 10 km+ 6.800 ft 230° 230° 4 kt METAR LFBD 240800Z AUTO 23004KT 9999 SCT015 SCT020 BKN068 14/13 Q1014 TEMPO 3000 SHRA FEW020CB BKN025TCU
09:30
I
14 °C 2,6 km - Var Var 3 kt METAR LFBD 240730Z AUTO VRB03KT 9999 2600 NSC 14/13 Q1014 TEMPO 3000 SHRA FEW020CB BKN025TCU
09:00
V
13 °C 10 km+ - 180° 180° 2 kt METAR LFBD 240700Z AUTO 18002KT CAVOK 13/13 Q1014 TEMPO 3000 SHRA FEW020CB BKN025TCU BECMG 28010KT
08:30
L
12 °C 500 m - Var Var 2 kt METAR LFBD 240630Z AUTO VRB02KT 9999 0500 R23/P2300 R05/0700D R29/P2300 BCFG NSC 12/11 Q1014 TEMPO 3000 SHRA FEW020CB BKN025TCU
08:00
L
12 °C 1 km 7.400 ft 150° 150° 2 kt METAR LFBD 240600Z AUTO 15002KT 9999 1000 R23/P2300 R05/0700D R29/P2300 SCT018 SCT024 BKN074 12/11 Q1014 TEMPO 0800 BCFG FEW020CB BKN025TCU
07:30
I
12 °C 1,8 km 1.900 ft 150° 150° 3 kt METAR LFBD 240530Z AUTO 15003KT 9999 1800 BKN019/// BKN056/// //////TCU 12/12 Q1014 TEMPO 0800 BCFG FEW020CB BKN025TCU
07:00
L
12 °C 700 m 6.600 ft Var Var 2 kt METAR LFBD 240500Z AUTO VRB02KT 9999 0700 R23/P2300 R05/1300D R29/P2300 BCFG SCT018 SCT056 BKN066 12/12 Q1014 TEMPO 3000 SHRA FEW020CB BKN025TCU
06:30
I
12 °C 1,5 km - 170° 170° 2 kt METAR LFBD 240430Z AUTO 17002KT 9999 1500 FEW018 12/12 Q1014 TEMPO 0800 BCFG BKN003
06:00
V
12 °C 10 km+ - 180° 180° 3 kt METAR LFBD 240400Z AUTO 18003KT 9999 FEW035 12/12 Q1014 TEMPO 0800 BCFG BKN003
05:30
L
13 °C 550 m 5.000 ft Var 000° 0 kt METAR LFBD 240330Z AUTO 00000KT 9000 0550 R23/P2300 R05/0650N R29/P2300 BCFG FEW027 SCT038 BKN050 13/12 Q1014 TEMPO 0800 BCFG BKN003
05:00
L
12 °C 800 m - 190° 190° 3 kt METAR LFBD 240300Z AUTO 19003KT 9999 0800 R23/1900U R05/1000D R29/P2300 BCFG SCT040 12/12 Q1014 TEMPO 0800 BCFG BKN003
04:30
L
12 °C 1 km - 190° 190° 1 kt METAR LFBD 240230Z AUTO 19001KT 9999 1000 R23/1100U R05/P2300 R29/P2300 FEW049 12/12 Q1014 TEMPO 0800 BCFG BKN003
04:00
L
13 °C 750 m - Var 000° 0 kt METAR LFBD 240200Z AUTO 00000KT 5000 0750 R23/0900D R05/P2300U R29/P2300 BCFG NSC 13/12 Q1015 TEMPO 0800 BCFG BKN030TCU
03:30
L
13 °C 1,1 km - Var Var 2 kt METAR LFBD 240130Z AUTO VRB02KT 9999 1100 R23/P2300 R05/0900U R29/P2300 NSC 13/12 Q1015 TEMPO 0800 BCFG BKN030TCU
03:00
L
13 °C 1,2 km - 210° 210° 2 kt METAR LFBD 240100Z AUTO 21002KT 8000 1200 R23/1600D R05/P2300U R29/P2300 NSC 13/12 Q1015 TEMPO 4000 SHRA BKN030TCU
02:30
L
13 °C 1 km 10.000 ft 190° 190° 1 kt METAR LFBD 240030Z AUTO 19001KT 9999 1000 R23/P2300 R05/1500D R29/P2300 FEW003 BKN100 13/12 Q1016 TEMPO 4000 SHRA BKN030TCU
02:00
L
13 °C 800 m 11.000 ft 200° 200° 3 kt METAR LFBD 240000Z AUTO 20003KT 9999 0800 R23/1100U R05/1200D R29/P2300 BCFG FEW022 BKN110 13/12 Q1016 TEMPO 4000 SHRA BKN030TCU
01:30
L
13 °C 500 m - 210° 210° 1 kt METAR LFBD 232330Z AUTO 21001KT 9999 0500 R23/P2300 R05/0800D R29/P2300 BCFG NSC 13/12 Q1016 NOSIG
01:00
I
13 °C 4,4 km - 220° 220° 4 kt METAR LFBD 232300Z AUTO 22004KT 9999 4400 NSC 13/12 Q1016 NOSIG
00:30
V
14 °C 10 km+ - 220° 220° 3 kt METAR LFBD 232230Z AUTO 22003KT 9999 FEW023 14/12 Q1016 NOSIG
00:00
V
14 °C 10 km+ - 230° 230° 5 kt METAR LFBD 232200Z AUTO 23005KT CAVOK 14/13 Q1016 NOSIG

2022年9月23日

时间 代码 天气 温度 能见度 天花板 METAR/SPECI
23:30
V
15 °C 10 km+ - 240° 240° 5 kt METAR LFBD 232130Z AUTO 24005KT CAVOK 15/13 Q1016 NOSIG
23:00
I
16 °C 1,8 km - 240° 240° 4 kt METAR LFBD 232100Z AUTO 24004KT 9999 1800 NSC 16/13 Q1016 NOSIG
22:30
V
16 °C 10 km+ - 250° 250° 4 kt METAR LFBD 232030Z AUTO 25004KT CAVOK 16/13 Q1016 NOSIG
22:00
V
17 °C 10 km+ - 260° 260° 4 kt METAR LFBD 232000Z AUTO 26004KT CAVOK 17/14 Q1016 NOSIG
21:30
V
18 °C 10 km+ - 260° 260° 5 kt METAR LFBD 231930Z AUTO 26005KT 240V310 CAVOK 18/14 Q1016 NOSIG
21:00
V
18 °C 10 km+ - 260° 260° 4 kt METAR LFBD 231900Z AUTO 26004KT CAVOK 18/14 Q1016 TEMPO BKN080TCU
20:30
V
18 °C 10 km+ - 260° 260° 5 kt METAR LFBD 231830Z AUTO 26005KT CAVOK 18/13 Q1016 TEMPO BKN080TCU
20:00
V
19 °C 10 km+ - 250° 250° 5 kt METAR LFBD 231800Z AUTO 25005KT CAVOK 19/14 Q1016 TEMPO BKN080TCU
19:30
V
19 °C 10 km+ - 260° 260° 6 kt METAR LFBD 231730Z AUTO 26006KT CAVOK 19/13 Q1016 TEMPO BKN080TCU
19:00
V
20 °C 10 km+ - 250° 250° 8 kt METAR LFBD 231700Z AUTO 25008KT CAVOK 20/14 Q1016 TEMPO BKN080TCU
18:30
V
20 °C 10 km+ 11.000 ft 240° 240° 7 kt METAR LFBD 231630Z AUTO 24007KT 9999 FEW027 OVC110 20/15 Q1016 TEMPO BKN080TCU
18:00
V
20 °C 10 km+ - 230° 230° 7 kt METAR LFBD 231600Z AUTO 23007KT CAVOK 20/14 Q1015 TEMPO BKN080TCU
17:30
V
20 °C 10 km+ - 250° 250° 7 kt METAR LFBD 231530Z AUTO 25007KT CAVOK 20/14 Q1015 TEMPO BKN080TCU
17:00
V
21 °C 10 km+ - 260° 260° 6 kt METAR LFBD 231500Z AUTO 26006KT 220V300 CAVOK 21/14 Q1016 TEMPO BKN080TCU
16:30
V
21 °C 10 km+ - 260° 260° 5 kt METAR LFBD 231430Z AUTO 26005KT CAVOK 21/14 Q1016 TEMPO BKN080TCU
16:00
V
21 °C 10 km+ - 250° 250° 5 kt METAR LFBD 231400Z AUTO 25005KT CAVOK 21/14 Q1016 TEMPO BKN080TCU
15:30
V
21 °C 10 km+ - Var Var 3 kt METAR LFBD 231330Z AUTO VRB03KT CAVOK 21/13 Q1016 TEMPO BKN080TCU
15:00
V
21 °C 10 km+ - 250° 250° 5 kt METAR LFBD 231300Z AUTO 25005KT 200V280 CAVOK 21/14 Q1016 TEMPO BKN080TCU
14:30
V
21 °C 10 km+ 13.000 ft 250° 250° 6 kt METAR LFBD 231230Z AUTO 25006KT 9999 FEW001 BKN130 BKN150 21/14 Q1017 TEMPO BKN080TCU
14:00
V
20 °C 10 km+ 14.000 ft 230° 230° 7 kt METAR LFBD 231200Z AUTO 23007KT 9999 FEW003 SCT120 BKN140 20/14 Q1017 TEMPO BKN080TCU
13:30
V
20 °C 10 km+ - 260° 260° 8 kt METAR LFBD 231130Z AUTO 26008KT CAVOK 20/14 Q1017 TEMPO BKN080TCU
13:00
V
20 °C 10 km+ - 240° 240° 7 kt METAR LFBD 231100Z AUTO 24007KT CAVOK 20/15 Q1017 TEMPO BKN090TCU
12:30
V
19 °C 10 km+ - 240° 240° 5 kt METAR LFBD 231030Z AUTO 24005KT 210V270 CAVOK 19/15 Q1017 TEMPO BKN090TCU
12:00
V
19 °C 10 km+ - 240° 240° 4 kt METAR LFBD 231000Z AUTO 24004KT 210V270 CAVOK 19/15 Q1017 NOSIG
较旧的数据

我们和第三方通过cookies跟踪您在我们网站上的上网行为。如果您继续,我们认为您同意我们的cookie政策。 了解更多